Time;durP1;ratioP1;P1;durP2;ratioP2;P2;SDS_P1;SDS_P2;PMS_P1;PMS_P2;Temp;Humidity;BMP_temperature;BMP_pressure;BME280_temperature;BME280_humidity;BME280_pressure;Samples;Min_cycle;Max_cycle;Signal;HPM_P1;HPM_P2
2021/09/28 00:00:24;;;;;;;16.93;5.23;;;;;;;-145.18;0.00;102943.50;5016778;28;20681;-70
2021/09/28 00:02:49;;;;;;;15.07;5.60;;;;;;;-145.18;0.00;102943.50;5018206;28;20052;-70
2021/09/28 00:05:15;;;;;;;16.63;5.50;;;;;;;-145.18;0.00;102943.50;5018360;28;20049;-70
2021/09/28 00:07:40;;;;;;;13.90;5.53;;;;;;;-145.18;0.00;102943.50;5018058;28;20466;-70
2021/09/28 00:10:06;;;;;;;11.93;4.90;;;;;;;-145.18;0.00;102943.50;5019118;28;20262;-70
2021/09/28 00:12:32;;;;;;;14.90;5.87;;;;;;;-145.18;0.00;102943.50;5018672;28;20253;-70
2021/09/28 00:14:58;;;;;;;13.20;5.10;;;;;;;-145.18;0.00;102943.50;5018379;28;20021;-69
2021/09/28 00:17:23;;;;;;;16.73;5.77;;;;;;;-145.18;0.00;102943.50;5018747;28;20029;-69
2021/09/28 00:19:49;;;;;;;17.07;5.40;;;;;;;-145.18;0.00;102943.50;5017442;28;20281;-70
2021/09/28 00:22:14;;;;;;;12.07;5.53;;;;;;;-145.18;0.00;102943.50;5013730;28;20553;-70
2021/09/28 00:24:40;;;;;;;18.57;5.50;;;;;;;-145.18;0.00;102943.50;5014527;28;20026;-70
2021/09/28 00:27:05;;;;;;;16.77;5.83;;;;;;;-145.18;0.00;102943.50;5016258;28;20289;-70
2021/09/28 00:29:30;;;;;;;21.30;6.17;;;;;;;-145.18;0.00;102943.50;5017060;28;20035;-70
2021/09/28 00:31:56;;;;;;;14.57;5.93;;;;;;;-145.18;0.00;102943.50;5017355;28;20218;-70
2021/09/28 00:34:21;;;;;;;15.97;6.47;;;;;;;-145.18;0.00;102943.50;5015133;28;20037;-69
2021/09/28 00:36:47;;;;;;;17.80;6.07;;;;;;;-145.18;0.00;102943.50;5018826;28;20159;-69
2021/09/28 00:39:13;;;;;;;17.43;7.77;;;;;;;-145.18;0.00;102943.50;5013375;28;20468;-69
2021/09/28 00:41:39;;;;;;;13.87;6.17;;;;;;;-145.18;0.00;102943.50;5013376;28;20025;-70
2021/09/28 00:44:05;;;;;;;16.10;6.50;;;;;;;-145.18;0.00;102943.50;5017583;28;20462;-69
2021/09/28 00:46:30;;;;;;;13.43;5.87;;;;;;;-145.18;0.00;102943.50;5018492;28;20025;-70
2021/09/28 00:48:56;;;;;;;18.63;6.37;;;;;;;-145.18;0.00;102943.50;5018197;28;20091;-70
2021/09/28 00:51:22;;;;;;;13.83;6.17;;;;;;;-145.18;0.00;102943.50;5017821;28;20036;-69
2021/09/28 00:53:50;;;;;;;18.50;7.20;;;;;;;-145.18;0.00;102943.50;5017391;28;20128;-69
2021/09/28 00:56:19;;;;;;;18.00;6.47;;;;;;;-145.18;0.00;102943.50;5018111;28;20605;-69
2021/09/28 00:58:45;;;;;;;15.73;6.50;;;;;;;-145.18;0.00;102943.50;5017888;28;20106;-69
2021/09/28 01:01:12;;;;;;;19.53;6.93;;;;;;;-145.18;0.00;102943.50;5016867;28;20248;-69
2021/09/28 01:03:38;;;;;;;17.03;6.80;;;;;;;-145.18;0.00;102943.50;5008006;28;20021;-69
2021/09/28 01:06:06;;;;;;;16.63;6.67;;;;;;;-145.18;0.00;102943.50;5017296;28;20029;-69
2021/09/28 01:08:31;;;;;;;18.03;6.47;;;;;;;-145.18;0.00;102943.50;5016987;28;20166;-69
2021/09/28 01:10:57;;;;;;;21.67;6.70;;;;;;;-145.18;0.00;102943.50;5017580;28;20178;-70
2021/09/28 01:13:23;;;;;;;20.37;7.33;;;;;;;-145.18;0.00;102943.50;5017455;28;20074;-69
2021/09/28 01:16:18;;;;;;;18.23;6.70;;;;;;;-145.18;0.00;102943.50;5016503;28;20033;-69
2021/09/28 01:18:44;;;;;;;22.40;6.90;;;;;;;-145.18;0.00;102943.50;4999139;28;20122;-69
2021/09/28 01:21:12;;;;;;;20.97;6.83;;;;;;;-145.18;0.00;102943.50;5013146;28;20037;-69
2021/09/28 01:23:44;;;;;;;18.27;6.70;;;;;;;-145.18;0.00;102943.50;5011726;28;20029;-69
2021/09/28 01:26:12;;;;;;;16.40;6.68;;;;;;;-145.18;0.00;102943.50;5015098;28;20181;-69
2021/09/28 01:28:38;;;;;;;19.83;6.93;;;;;;;-145.18;0.00;102943.50;5013304;28;20233;-69
2021/09/28 01:31:04;;;;;;;26.00;7.87;;;;;;;-145.18;0.00;102943.50;5013045;28;20303;-69
2021/09/28 01:33:29;;;;;;;18.23;6.90;;;;;;;-145.18;0.00;102943.50;5015356;28;20021;-69
2021/09/28 01:35:55;;;;;;;22.33;7.53;;;;;;;-145.18;0.00;102943.50;5018041;28;20021;-69
2021/09/28 01:38:20;;;;;;;19.40;6.90;;;;;;;-145.18;0.00;102943.50;5016929;28;20515;-69
2021/09/28 01:40:46;;;;;;;24.57;7.80;;;;;;;-145.18;0.00;102943.50;5017094;28;20097;-69
2021/09/28 01:43:14;;;;;;;22.13;6.60;;;;;;;-145.18;0.00;102943.50;5015852;28;20025;-69
2021/09/28 01:45:41;;;;;;;17.53;6.43;;;;;;;-145.18;0.00;102943.50;5015338;28;20030;-69
2021/09/28 01:48:07;;;;;;;22.93;7.20;;;;;;;-145.18;0.00;102943.50;5012015;28;20030;-69
2021/09/28 01:50:32;;;;;;;18.27;6.87;;;;;;;-145.18;0.00;102943.50;5013458;28;20028;-69
2021/09/28 01:52:58;;;;;;;19.97;6.77;;;;;;;-145.18;0.00;102943.50;5014304;28;20133;-69
2021/09/28 01:55:27;;;;;;;18.30;6.90;;;;;;;-145.18;0.00;102943.50;5013453;28;20021;-69
2021/09/28 01:57:56;;;;;;;19.63;7.20;;;;;;;-145.18;0.00;102943.50;5014552;28;20360;-69
2021/09/28 02:00:23;;;;;;;21.47;6.77;;;;;;;-145.18;0.00;102943.50;5012727;28;20550;-69
2021/09/28 02:02:48;;;;;;;18.03;7.27;;;;;;;-145.18;0.00;102943.50;5016562;28;20104;-69
2021/09/28 02:05:14;;;;;;;22.43;7.70;;;;;;;-145.18;0.00;102943.50;5015901;28;20412;-69
2021/09/28 02:07:40;;;;;;;23.00;7.13;;;;;;;-145.18;0.00;102943.50;5012744;28;20025;-69
2021/09/28 02:10:06;;;;;;;24.73;9.50;;;;;;;-145.18;0.00;102943.50;5015484;28;20472;-68
2021/09/28 02:12:32;;;;;;;27.43;8.57;;;;;;;-145.18;0.00;102943.50;5014473;28;20176;-68
2021/09/28 02:14:58;;;;;;;22.97;8.83;;;;;;;-145.18;0.00;102943.50;5017246;28;20283;-68
2021/09/28 02:17:23;;;;;;;19.73;6.93;;;;;;;-145.18;0.00;102943.50;5019191;28;20025;-68
2021/09/28 02:19:49;;;;;;;27.37;7.97;;;;;;;-145.18;0.00;102943.50;5018151;28;20120;-68
2021/09/28 02:22:14;;;;;;;19.37;7.90;;;;;;;-145.18;0.00;102943.50;5017258;28;20842;-68
2021/09/28 02:24:40;;;;;;;24.63;8.70;;;;;;;-145.18;0.00;102943.50;5016845;28;20112;-68
2021/09/28 02:27:06;;;;;;;23.97;8.10;;;;;;;-145.18;0.00;102943.50;5015712;28;20100;-68
2021/09/28 02:29:31;;;;;;;24.33;8.23;;;;;;;-145.18;0.00;102943.50;5014055;28;20041;-68
2021/09/28 02:31:57;;;;;;;30.13;8.03;;;;;;;-145.18;0.00;102943.50;5016291;28;20025;-68
2021/09/28 02:34:22;;;;;;;23.93;8.27;;;;;;;-145.18;0.00;102943.50;5015431;28;20052;-68
2021/09/28 02:36:48;;;;;;;29.67;8.47;;;;;;;-145.18;0.00;102943.50;5018120;28;20159;-68
2021/09/28 02:39:13;;;;;;;26.40;8.93;;;;;;;-145.18;0.00;102943.50;5021295;28;20373;-69
2021/09/28 02:41:39;;;;;;;32.47;9.20;;;;;;;-145.18;0.00;102943.50;5020576;28;20100;-68
2021/09/28 02:44:05;;;;;;;35.33;10.17;;;;;;;-145.18;0.00;102943.50;5016130;28;20245;-69
2021/09/28 02:46:31;;;;;;;28.67;9.67;;;;;;;-145.18;0.00;102943.50;5019943;28;20033;-68
2021/09/28 02:48:58;;;;;;;32.60;10.10;;;;;;;-145.18;0.00;102943.50;5017998;28;20368;-68
2021/09/28 02:51:23;;;;;;;32.17;10.03;;;;;;;-145.18;0.00;102943.50;5019606;28;20026;-69
2021/09/28 02:53:49;;;;;;;33.80;9.77;;;;;;;-145.18;0.00;102943.50;5019670;28;20235;-68
2021/09/28 02:56:14;;;;;;;30.97;9.87;;;;;;;-145.18;0.00;102943.50;5021077;28;20624;-69
2021/09/28 02:58:40;;;;;;;27.03;9.00;;;;;;;-145.18;0.00;102943.50;5020382;28;20034;-69
2021/09/28 03:01:05;;;;;;;22.83;7.97;;;;;;;-145.18;0.00;102943.50;5019144;28;20495;-69
2021/09/28 03:03:31;;;;;;;24.70;7.90;;;;;;;-145.18;0.00;102943.50;5020448;28;20018;-69
2021/09/28 03:05:56;;;;;;;26.53;8.10;;;;;;;-145.18;0.00;102943.50;5020311;28;20061;-69
2021/09/28 03:08:22;;;;;;;32.23;8.83;;;;;;;-145.18;0.00;102943.50;5016278;28;20271;-69
2021/09/28 03:10:47;;;;;;;24.90;8.73;;;;;;;-145.18;0.00;102943.50;5020041;28;20227;-69
2021/09/28 03:13:13;;;;;;;37.27;10.90;;;;;;;-145.18;0.00;102943.50;5020116;28;20503;-69
2021/09/28 03:15:39;;;;;;;38.33;10.10;;;;;;;-145.18;0.00;102943.50;5020489;28;20022;-69
2021/09/28 03:18:04;;;;;;;37.53;10.43;;;;;;;-145.18;0.00;102943.50;5019709;28;20014;-69
2021/09/28 03:20:30;;;;;;;32.03;10.77;;;;;;;-145.18;0.00;102943.50;5018052;28;20021;-69
2021/09/28 03:22:56;;;;;;;37.87;11.37;;;;;;;-145.18;0.00;102943.50;5017719;28;20493;-69
2021/09/28 03:25:22;;;;;;;37.40;11.03;;;;;;;-145.18;0.00;102943.50;5019650;28;20167;-69
2021/09/28 03:27:47;;;;;;;41.20;10.73;;;;;;;-145.18;0.00;102943.50;5018966;28;20017;-69
2021/09/28 03:30:13;;;;;;;38.70;10.30;;;;;;;-145.18;0.00;102943.50;5020576;28;20314;-69
2021/09/28 03:32:39;;;;;;;37.33;11.40;;;;;;;-145.18;0.00;102943.50;5018915;28;20104;-69
2021/09/28 03:35:09;;;;;;;35.00;11.13;;;;;;;-145.18;0.00;102943.50;5019043;28;20160;-69
2021/09/28 03:37:38;;;;;;;37.80;10.53;;;;;;;-145.18;0.00;102943.50;5016477;28;20790;-69
2021/09/28 03:40:07;;;;;;;36.20;10.57;;;;;;;-145.18;0.00;102943.50;5016681;28;20361;-69
2021/09/28 03:42:32;;;;;;;35.63;10.67;;;;;;;-145.18;0.00;102943.50;5018052;28;20329;-69
2021/09/28 03:44:58;;;;;;;35.97;11.07;;;;;;;-145.18;0.00;102943.50;5019238;28;20427;-69
2021/09/28 03:47:23;;;;;;;37.13;10.73;;;;;;;-145.18;0.00;102943.50;5019214;28;20112;-69
2021/09/28 03:49:49;;;;;;;36.70;10.07;;;;;;;-145.18;0.00;102943.50;5019737;28;20120;-69
2021/09/28 03:52:14;;;;;;;33.03;10.50;;;;;;;-145.18;0.00;102943.50;5018805;28;20029;-69
2021/09/28 03:54:40;;;;;;;34.07;10.40;;;;;;;-145.18;0.00;102943.50;5018143;28;20108;-69
2021/09/28 03:57:06;;;;;;;34.67;10.50;;;;;;;-145.18;0.00;102943.50;5017179;28;20483;-69
2021/09/28 03:59:31;;;;;;;33.10;10.30;;;;;;;-145.18;0.00;102943.50;5017667;28;20221;-69
2021/09/28 04:01:57;;;;;;;32.83;10.10;;;;;;;-145.18;0.00;102943.50;5019017;28;20033;-69
2021/09/28 04:04:22;;;;;;;37.90;11.40;;;;;;;-145.18;0.00;102943.50;5016382;28;20056;-69
2021/09/28 04:06:48;;;;;;;43.23;11.60;;;;;;;-145.18;0.00;102943.50;5019116;28;20495;-69
2021/09/28 04:09:13;;;;;;;43.20;11.53;;;;;;;-145.18;0.00;102943.50;5018255;28;20029;-69
2021/09/28 04:11:39;;;;;;;35.33;11.90;;;;;;;-145.18;0.00;102943.50;5015931;28;20021;-69
2021/09/28 04:14:06;;;;;;;43.73;12.43;;;;;;;-145.18;0.00;102943.50;5017198;28;20053;-69
2021/09/28 04:16:32;;;;;;;53.53;13.03;;;;;;;-145.18;0.00;102943.50;5014639;28;20285;-69
2021/09/28 04:18:57;;;;;;;47.60;14.50;;;;;;;-145.18;0.00;102943.50;5018759;28;20017;-69
2021/09/28 04:21:26;;;;;;;43.93;12.53;;;;;;;-145.18;0.00;102943.50;5017551;28;20502;-69
2021/09/28 04:23:52;;;;;;;46.97;13.73;;;;;;;-145.18;0.00;102943.50;5018457;28;20379;-68
2021/09/28 04:26:18;;;;;;;53.47;14.10;;;;;;;-145.18;0.00;102943.50;5017932;28;20408;-69
2021/09/28 04:28:43;;;;;;;51.23;14.80;;;;;;;-145.18;0.00;102943.50;5018638;28;20033;-70
2021/09/28 04:31:12;;;;;;;49.40;13.63;;;;;;;-145.18;0.00;102943.50;5009493;28;20049;-70
2021/09/28 04:33:37;;;;;;;48.80;13.17;;;;;;;-145.18;0.00;102943.50;5017221;28;20185;-69
2021/09/28 04:36:03;;;;;;;40.07;12.50;;;;;;;-145.18;0.00;102943.50;5015347;28;20036;-70
2021/09/28 04:38:29;;;;;;;46.83;12.73;;;;;;;-145.18;0.00;102943.50;5018184;28;20483;-70
2021/09/28 04:40:54;;;;;;;42.60;12.80;;;;;;;-145.18;0.00;102943.50;5018422;28;20029;-69
2021/09/28 04:43:20;;;;;;;56.50;12.87;;;;;;;-145.18;0.00;102943.50;5015568;28;20117;-69
2021/09/28 04:45:45;;;;;;;56.33;14.03;;;;;;;-145.18;0.00;102943.50;5018134;28;20052;-69
2021/09/28 04:48:11;;;;;;;44.27;12.27;;;;;;;-145.18;0.00;102943.50;5016943;28;20727;-70
2021/09/28 04:50:36;;;;;;;40.00;12.13;;;;;;;-145.18;0.00;102943.50;5017352;28;20030;-69
2021/09/28 04:53:02;;;;;;;50.53;13.67;;;;;;;-145.18;0.00;102943.50;5018122;28;20108;-69
2021/09/28 04:55:27;;;;;;;59.03;14.30;;;;;;;-145.18;0.00;102943.50;5015612;28;20266;-69
2021/09/28 04:57:53;;;;;;;65.77;14.67;;;;;;;-145.18;0.00;102943.50;5017232;28;20171;-69
2021/09/28 05:00:19;;;;;;;51.67;13.77;;;;;;;-145.18;0.00;102943.50;5016895;28;20160;-70
2021/09/28 05:02:44;;;;;;;58.73;14.87;;;;;;;-145.18;0.00;102943.50;5017486;28;20124;-69
2021/09/28 05:05:10;;;;;;;55.13;14.33;;;;;;;-145.18;0.00;102943.50;5014969;28;20052;-69
2021/09/28 05:07:35;;;;;;;48.37;14.07;;;;;;;-145.18;0.00;102943.50;5017031;28;20252;-69
2021/09/28 05:10:01;;;;;;;52.43;13.73;;;;;;;-145.18;0.00;102943.50;5012596;28;20526;-70
2021/09/28 05:12:27;;;;;;;60.17;14.93;;;;;;;-145.18;0.00;102943.50;5017112;28;20092;-69
2021/09/28 05:14:52;;;;;;;60.53;14.57;;;;;;;-145.18;0.00;102943.50;5017394;28;20029;-69
2021/09/28 05:17:18;;;;;;;59.93;14.20;;;;;;;-145.18;0.00;102943.50;5016827;28;20029;-69
2021/09/28 05:19:43;;;;;;;54.03;13.63;;;;;;;-145.18;0.00;102943.50;5015571;28;20203;-69
2021/09/28 05:22:09;;;;;;;51.70;14.43;;;;;;;-145.18;0.00;102943.50;5017352;28;20028;-69
2021/09/28 05:24:34;;;;;;;53.10;13.37;;;;;;;-145.18;0.00;102943.50;5015873;28;20076;-69
2021/09/28 05:27:00;;;;;;;59.00;13.57;;;;;;;-145.18;0.00;102943.50;5016541;28;20475;-69
2021/09/28 05:29:25;;;;;;;57.90;13.43;;;;;;;-145.18;0.00;102943.50;5014914;28;20187;-69
2021/09/28 05:31:51;;;;;;;75.53;14.50;;;;;;;-145.18;0.00;102943.50;5015157;28;20175;-69
2021/09/28 05:34:16;;;;;;;71.33;15.37;;;;;;;-145.18;0.00;102943.50;5017802;28;20030;-69
2021/09/28 05:36:42;;;;;;;61.43;15.33;;;;;;;-145.18;0.00;102943.50;5017768;28;20021;-69
2021/09/28 05:39:07;;;;;;;79.77;15.57;;;;;;;-145.18;0.00;102943.50;5018175;28;20068;-69
2021/09/28 05:41:33;;;;;;;56.10;14.47;;;;;;;-145.18;0.00;102943.50;5018466;28;20022;-69
2021/09/28 05:43:58;;;;;;;63.37;14.87;;;;;;;-145.18;0.00;102943.50;5017546;28;20025;-69
2021/09/28 05:46:24;;;;;;;64.33;14.83;;;;;;;-145.18;0.00;102943.50;5016799;28;20021;-69
2021/09/28 05:48:57;;;;;;;57.97;14.73;;;;;;;-145.18;0.00;102943.50;5018771;28;20277;-69
2021/09/28 05:51:25;;;;;;;66.17;15.43;;;;;;;-145.18;0.00;102943.50;5018182;28;20514;-70
2021/09/28 05:53:51;;;;;;;65.17;15.40;;;;;;;-145.18;0.00;102943.50;5017256;28;20025;-70
2021/09/28 05:56:20;;;;;;;78.77;16.43;;;;;;;-145.18;0.00;102943.50;5017635;28;20331;-70
2021/09/28 05:58:46;;;;;;;71.30;15.60;;;;;;;-145.18;0.00;102943.50;5018022;28;20502;-70
2021/09/28 06:01:11;;;;;;;55.90;14.20;;;;;;;-145.18;0.00;102943.50;5017473;28;20029;-70
2021/09/28 06:03:37;;;;;;;67.87;14.97;;;;;;;-145.18;0.00;102943.50;5017406;28;20030;-71
2021/09/28 06:06:05;;;;;;;66.23;14.70;;;;;;;-145.18;0.00;102943.50;5017931;28;20112;-70
2021/09/28 06:08:31;;;;;;;59.97;14.30;;;;;;;-145.18;0.00;102943.50;5016942;28;20048;-71
2021/09/28 06:10:57;;;;;;;58.80;15.67;;;;;;;-145.18;0.00;102943.50;5017830;28;20219;-70
2021/09/28 06:13:23;;;;;;;61.73;15.97;;;;;;;-145.18;0.00;102943.50;5016540;28;20041;-70
2021/09/28 06:15:48;;;;;;;60.07;15.80;;;;;;;-145.18;0.00;102943.50;5017690;28;20606;-70
2021/09/28 06:18:13;;;;;;;56.83;15.20;;;;;;;-145.18;0.00;102943.50;5017669;28;20664;-70
2021/09/28 06:20:39;;;;;;;54.60;14.40;;;;;;;-145.18;0.00;102943.50;5017159;28;20053;-69
2021/09/28 06:23:04;;;;;;;54.97;14.37;;;;;;;-145.18;0.00;102943.50;5018047;28;20372;-69
2021/09/28 06:25:30;;;;;;;48.37;13.50;;;;;;;-145.18;0.00;102943.50;5016922;28;20029;-69
2021/09/28 06:27:55;;;;;;;55.87;14.97;;;;;;;-145.18;0.00;102943.50;5012356;28;20030;-69
2021/09/28 06:30:21;;;;;;;42.67;13.67;;;;;;;-145.18;0.00;102943.50;5017661;28;20029;-69
2021/09/28 06:32:47;;;;;;;31.63;11.63;;;;;;;-145.18;0.00;102943.50;5017212;28;20022;-70
2021/09/28 06:35:12;;;;;;;37.23;12.10;;;;;;;-145.18;0.00;102943.50;5017418;28;20017;-70
2021/09/28 06:37:38;;;;;;;21.20;9.37;;;;;;;-145.18;0.00;102943.50;5017492;28;20683;-70
2021/09/28 06:40:04;;;;;;;14.13;7.30;;;;;;;-145.18;0.00;102943.50;5017817;28;20110;-70
2021/09/28 06:42:30;;;;;;;15.93;6.97;;;;;;;-145.18;0.00;102943.50;5017930;28;20029;-69
2021/09/28 06:44:55;;;;;;;15.33;5.93;;;;;;;-145.18;0.00;102943.50;5018315;28;20399;-70
2021/09/28 06:47:21;;;;;;;9.90;5.33;;;;;;;-145.18;0.00;102943.50;5017664;28;20044;-70
2021/09/28 06:49:46;;;;;;;8.83;4.90;;;;;;;-145.18;0.00;102943.50;5017714;28;20353;-70
2021/09/28 06:52:12;;;;;;;10.40;4.87;;;;;;;-145.18;0.00;102943.50;5017700;28;20021;-69
2021/09/28 06:54:38;;;;;;;10.13;5.63;;;;;;;-145.18;0.00;102943.50;5017344;28;20014;-70
2021/09/28 06:57:04;;;;;;;10.67;5.10;;;;;;;-145.18;0.00;102943.50;5017175;28;20384;-69
2021/09/28 06:59:29;;;;;;;15.67;6.00;;;;;;;-145.18;0.00;102943.50;5016582;28;20033;-70
2021/09/28 07:01:55;;;;;;;12.47;5.40;;;;;;;-145.18;0.00;102943.50;5018800;28;20017;-70
2021/09/28 07:04:20;;;;;;;10.93;4.77;;;;;;;-145.18;0.00;102943.50;5020643;28;20042;-70
2021/09/28 07:06:46;;;;;;;12.13;5.40;;;;;;;-145.18;0.00;102943.50;5020922;28;20142;-70
2021/09/28 07:09:12;;;;;;;22.83;4.80;;;;;;;-145.18;0.00;102943.50;5020683;28;20029;-70
2021/09/28 07:11:37;;;;;;;13.60;4.80;;;;;;;-145.18;0.00;102943.50;5020242;28;20075;-70
2021/09/28 07:14:03;;;;;;;11.03;4.43;;;;;;;-145.18;0.00;102943.50;5020214;28;20175;-70
2021/09/28 07:16:28;;;;;;;10.97;4.37;;;;;;;-145.18;0.00;102943.50;5021354;28;20037;-69
2021/09/28 07:18:54;;;;;;;9.73;5.00;;;;;;;-145.18;0.00;102943.50;5020528;28;20485;-70
2021/09/28 07:21:19;;;;;;;10.53;4.90;;;;;;;-145.18;0.00;102943.50;5020383;28;20471;-70
2021/09/28 07:23:45;;;;;;;9.33;4.70;;;;;;;-145.18;0.00;102943.50;5019935;28;20105;-69
2021/09/28 07:26:11;;;;;;;12.17;4.90;;;;;;;-145.18;0.00;102943.50;5020518;28;20111;-70
2021/09/28 07:28:37;;;;;;;10.20;4.55;;;;;;;-145.18;0.00;102943.50;5020227;28;20495;-70
2021/09/28 07:31:04;;;;;;;9.80;4.35;;;;;;;-145.18;0.00;102943.50;5020870;28;20432;-70
2021/09/28 07:33:30;;;;;;;13.32;4.75;;;;;;;-145.18;0.00;102943.50;5020288;28;20282;-70
2021/09/28 07:35:55;;;;;;;11.40;4.22;;;;;;;-145.18;0.00;102943.50;5019851;28;20285;-70
2021/09/28 07:38:21;;;;;;;10.00;3.90;;;;;;;-145.18;0.00;102943.50;5020019;28;20533;-70
2021/09/28 07:40:50;;;;;;;10.57;4.72;;;;;;;-145.18;0.00;102943.50;5018069;28;20029;-70
2021/09/28 07:43:16;;;;;;;9.13;4.22;;;;;;;-145.18;0.00;102943.50;5019881;28;20119;-70
2021/09/28 07:45:42;;;;;;;8.85;4.20;;;;;;;-145.18;0.00;102943.50;5020843;28;20029;-70
2021/09/28 07:48:08;;;;;;;9.73;4.03;;;;;;;-145.18;0.00;102943.50;5020013;28;20032;-70
2021/09/28 07:50:33;;;;;;;8.95;3.53;;;;;;;-145.18;0.00;102943.50;5019853;28;20026;-71
2021/09/28 07:52:59;;;;;;;8.02;3.90;;;;;;;-145.18;0.00;102943.50;5019659;28;20021;-71
2021/09/28 07:55:26;;;;;;;13.27;4.05;;;;;;;-145.18;0.00;102943.50;5020284;28;20475;-73
2021/09/28 07:57:52;;;;;;;9.65;3.92;;;;;;;-145.18;0.00;102943.50;5020615;28;20418;-74
2021/09/28 08:00:18;;;;;;;10.68;3.80;;;;;;;-145.18;0.00;102943.50;5019780;28;20021;-74
2021/09/28 08:02:43;;;;;;;10.32;4.20;;;;;;;-145.18;0.00;102943.50;5018617;28;20647;-74
2021/09/28 08:05:10;;;;;;;13.55;4.47;;;;;;;-145.18;0.00;102943.50;5019598;28;20072;-74
2021/09/28 08:07:38;;;;;;;14.20;4.13;;;;;;;-145.18;0.00;102943.50;5021619;28;20029;-75
2021/09/28 08:10:05;;;;;;;8.27;3.75;;;;;;;-145.18;0.00;102943.50;5018790;28;20327;-74
2021/09/28 08:12:30;;;;;;;12.52;4.18;;;;;;;-145.18;0.00;102943.50;5018759;28;20021;-74
2021/09/28 08:14:56;;;;;;;9.05;3.78;;;;;;;-145.18;0.00;102943.50;5019308;28;20698;-74
2021/09/28 08:17:23;;;;;;;8.05;3.38;;;;;;;-145.18;0.00;102943.50;5019514;28;20542;-76
2021/09/28 08:19:49;;;;;;;9.93;3.55;;;;;;;-145.18;0.00;102943.50;5018425;28;20025;-76
2021/09/28 08:22:16;;;;;;;14.27;3.83;;;;;;;-145.18;0.00;102943.50;5019555;28;20048;-75
2021/09/28 08:24:43;;;;;;;13.13;3.70;;;;;;;-145.18;0.00;102943.50;5018810;28;20029;-76
2021/09/28 08:29:56;;;;;;;9.75;3.78;;;;;;;-145.18;0.00;102943.50;5018690;28;20087;-75
2021/09/28 08:32:22;;;;;;;9.95;3.35;;;;;;;-145.18;0.00;102943.50;5018113;28;20057;-74
2021/09/28 08:34:48;;;;;;;11.05;3.60;;;;;;;-145.18;0.00;102943.50;5019240;28;20100;-75
2021/09/28 08:37:14;;;;;;;12.05;4.10;;;;;;;-145.18;0.00;102943.50;5018788;28;20507;-75
2021/09/28 08:39:40;;;;;;;9.90;3.50;;;;;;;-145.18;0.00;102943.50;5018581;28;20073;-74
2021/09/28 08:42:06;;;;;;;11.48;3.92;;;;;;;-145.18;0.00;102943.50;5018890;28;20029;-75
2021/09/28 08:44:31;;;;;;;8.68;3.25;;;;;;;-145.18;0.00;102943.50;5018221;28;20025;-75
2021/09/28 08:46:57;;;;;;;7.90;3.15;;;;;;;-145.18;0.00;102943.50;5019160;28;20021;-75
2021/09/28 08:49:23;;;;;;;13.43;4.13;;;;;;;-145.18;0.00;102943.50;5018048;28;20116;-74
2021/09/28 08:51:50;;;;;;;10.95;3.83;;;;;;;-145.18;0.00;102943.50;5018149;28;20025;-74
2021/09/28 08:54:16;;;;;;;9.10;3.30;;;;;;;-145.18;0.00;102943.50;5022645;28;20028;-72
2021/09/28 08:56:43;;;;;;;11.02;3.10;;;;;;;-145.18;0.00;102943.50;5018481;28;20171;-71
2021/09/28 08:59:10;;;;;;;8.23;3.45;;;;;;;-145.18;0.00;102943.50;5018354;28;20033;-71
2021/09/28 09:01:51;;;;;;;8.07;3.00;;;;;;;-145.18;0.00;102943.50;5017712;28;20021;-71
2021/09/28 09:04:19;;;;;;;9.10;2.83;;;;;;;-145.18;0.00;102943.50;5017709;28;20033;-70
2021/09/28 09:06:45;;;;;;;7.63;3.08;;;;;;;-145.18;0.00;102943.50;5020850;28;20018;-71
2021/09/28 09:09:15;;;;;;;8.15;3.30;;;;;;;-145.18;0.00;102943.50;5018097;28;20029;-70
2021/09/28 09:11:43;;;;;;;9.95;3.38;;;;;;;-145.18;0.00;102943.50;5013529;28;20045;-70
2021/09/28 09:14:27;;;;;;;7.18;3.30;;;;;;;-145.18;0.00;102943.50;5017123;28;20487;-70
2021/09/28 09:16:56;;;;;;;9.13;3.45;;;;;;;-145.18;0.00;102943.50;5018380;28;20056;-70
2021/09/28 09:19:26;;;;;;;14.07;4.75;;;;;;;-145.18;0.00;102943.50;5018302;28;20053;-70
2021/09/28 09:21:54;;;;;;;10.35;3.80;;;;;;;-145.18;0.00;102943.50;5018273;28;20538;-70
2021/09/28 09:24:45;;;;;;;9.00;3.70;;;;;;;-145.18;0.00;102943.50;5017571;28;20024;-70
2021/09/28 09:27:14;;;;;;;13.30;3.80;;;;;;;-145.18;0.00;102943.50;5018255;28;20048;-70
2021/09/28 09:29:40;;;;;;;12.40;3.80;;;;;;;-145.18;0.00;102943.50;5017694;28;20507;-70
2021/09/28 09:32:07;;;;;;;15.77;3.90;;;;;;;-145.18;0.00;102943.50;5017951;28;20247;-69
2021/09/28 09:34:32;;;;;;;11.40;3.77;;;;;;;-145.18;0.00;102943.50;5017684;28;20124;-70
2021/09/28 09:37:06;;;;;;;8.13;3.30;;;;;;;-145.18;0.00;102943.50;5018126;28;20128;-70
2021/09/28 09:39:55;;;;;;;8.47;3.20;;;;;;;-145.18;0.00;102943.50;5017497;28;20045;-70
2021/09/28 09:42:23;;;;;;;8.53;3.60;;;;;;;-145.18;0.00;102943.50;5015086;28;20036;-70
2021/09/28 09:44:50;;;;;;;15.03;4.47;;;;;;;-145.18;0.00;102943.50;5017807;28;20048;-70
2021/09/28 09:47:30;;;;;;;9.70;4.50;;;;;;;-145.18;0.00;102943.50;5017495;28;20048;-70
2021/09/28 09:50:14;;;;;;;10.50;3.60;;;;;;;-145.18;0.00;102943.50;5017800;28;20037;-70
2021/09/28 09:53:18;;;;;;;11.33;3.63;;;;;;;-145.18;0.00;102943.50;5016295;28;20033;-70
2021/09/28 09:55:43;;;;;;;10.57;3.93;;;;;;;-145.18;0.00;102943.50;4974838;28;20499;-70
2021/09/28 09:58:12;;;;;;;8.23;3.27;;;;;;;-145.18;0.00;102943.50;4975126;28;20054;-70
2021/09/28 10:00:41;;;;;;;8.33;3.50;;;;;;;-145.18;0.00;102943.50;4974931;28;20070;-70
2021/09/28 10:03:09;;;;;;;9.57;3.37;;;;;;;-145.18;0.00;102943.50;4973872;28;20338;-70
2021/09/28 10:05:36;;;;;;;10.57;3.53;;;;;;;-145.18;0.00;102943.50;4975181;28;20129;-70
2021/09/28 10:08:07;;;;;;;11.10;2.90;;;;;;;-145.18;0.00;102943.50;4974978;28;20739;-70
2021/09/28 10:10:33;;;;;;;14.50;4.50;;;;;;;-145.18;0.00;102943.50;4974536;28;20492;-70
2021/09/28 10:12:59;;;;;;;10.13;3.60;;;;;;;-145.18;0.00;102943.50;4974581;28;20121;-70
2021/09/28 10:15:24;;;;;;;10.53;2.90;;;;;;;-145.18;0.00;102943.50;4975151;28;20482;-70
2021/09/28 10:17:50;;;;;;;8.00;3.13;;;;;;;-145.18;0.00;102943.50;4974984;28;20046;-70
2021/09/28 10:20:45;;;;;;;9.43;2.80;;;;;;;-145.18;0.00;102943.50;4975421;28;20555;-70
2021/09/28 10:23:17;;;;;;;10.37;3.43;;;;;;;-145.18;0.00;102943.50;4971139;28;20065;-70
2021/09/28 10:25:46;;;;;;;10.70;3.53;;;;;;;-145.18;0.00;102943.50;4980820;28;20116;-70
2021/09/28 10:28:31;;;;;;;9.50;2.90;;;;;;;-145.18;0.00;102943.50;5017518;28;20345;-70
2021/09/28 10:30:58;;;;;;;8.03;1.90;;;;;;;-145.18;0.00;102943.50;5015061;28;20570;-70
2021/09/28 10:33:29;;;;;;;6.77;2.60;;;;;;;-145.18;0.00;102943.50;5015721;28;20036;-71
2021/09/28 10:36:08;;;;;;;6.50;2.60;;;;;;;-145.18;0.00;102943.50;5017950;28;20104;-70
2021/09/28 10:38:58;;;;;;;9.07;2.50;;;;;;;-145.18;0.00;102943.50;5020882;28;20287;-70
2021/09/28 10:41:38;;;;;;;14.48;3.25;;;;;;;-145.18;0.00;102943.50;5021016;28;20074;-70
2021/09/28 10:44:48;;;;;;;6.15;2.10;;;;;;;-145.18;0.00;102943.50;5022021;28;20029;-70
2021/09/28 10:47:43;;;;;;;9.70;2.28;;;;;;;-145.18;0.00;102943.50;5018609;28;20042;-70
2021/09/28 10:50:23;;;;;;;5.13;1.75;;;;;;;-145.18;0.00;102943.50;5021570;28;20586;-70
2021/09/28 10:52:50;;;;;;;6.37;2.17;;;;;;;-145.18;0.00;102943.50;5021056;28;20087;-70
2021/09/28 10:55:21;;;;;;;7.50;1.77;;;;;;;-145.18;0.00;102943.50;5019647;28;20434;-70
2021/09/28 10:58:09;;;;;;;4.93;1.60;;;;;;;-145.18;0.00;102943.50;5024515;28;20288;-71
2021/09/28 11:01:04;;;;;;;9.07;2.57;;;;;;;-145.18;0.00;102943.50;5021377;28;20048;-70
2021/09/28 11:04:03;;;;;;;5.73;1.53;;;;;;;-145.18;0.00;102943.50;5017212;28;20045;-70
2021/09/28 11:06:49;;;;;;;4.20;1.37;;;;;;;-145.18;0.00;102943.50;4960050;28;20497;-70
2021/09/28 11:09:17;;;;;;;9.23;2.27;;;;;;;-145.18;0.00;102943.50;4959579;28;20544;-70
2021/09/28 11:11:46;;;;;;;6.07;1.50;;;;;;;-145.18;0.00;102943.50;4960577;28;20089;-70
2021/09/28 11:14:12;;;;;;;5.97;1.87;;;;;;;-145.18;0.00;102943.50;4962731;28;20183;-70